sensor_id;sensor_type;location;lat;lon;timestamp;P1;durP1;ratioP1;P2;durP2;ratioP2
4597;SDS011;62772;48.646;8.906;2022-11-18T00:00:08;5.20;;;3.10;;
4597;SDS011;62772;48.646;8.906;2022-11-18T00:05:12;3.60;;;2.17;;
4597;SDS011;62772;48.646;8.906;2022-11-18T00:10:13;6.73;;;3.10;;
4597;SDS011;62772;48.646;8.906;2022-11-18T00:15:14;3.40;;;2.30;;
4597;SDS011;62772;48.646;8.906;2022-11-18T00:20:17;2.60;;;1.83;;
4597;SDS011;62772;48.646;8.906;2022-11-18T00:25:18;3.23;;;1.80;;
4597;SDS011;62772;48.646;8.906;2022-11-18T00:30:19;3.37;;;1.97;;
4597;SDS011;62772;48.646;8.906;2022-11-18T00:35:22;3.60;;;2.20;;
4597;SDS011;62772;48.646;8.906;2022-11-18T00:40:23;4.30;;;2.20;;
4597;SDS011;62772;48.646;8.906;2022-11-18T00:45:25;4.10;;;2.50;;
4597;SDS011;62772;48.646;8.906;2022-11-18T00:50:28;3.87;;;2.60;;
4597;SDS011;62772;48.646;8.906;2022-11-18T00:55:29;3.20;;;2.33;;
4597;SDS011;62772;48.646;8.906;2022-11-18T01:00:29;5.10;;;3.50;;
4597;SDS011;62772;48.646;8.906;2022-11-18T01:05:33;5.23;;;3.20;;
4597;SDS011;62772;48.646;8.906;2022-11-18T01:10:34;6.10;;;3.77;;
4597;SDS011;62772;48.646;8.906;2022-11-18T01:15:37;5.20;;;3.53;;
4597;SDS011;62772;48.646;8.906;2022-11-18T01:20:41;6.27;;;4.00;;
4597;SDS011;62772;48.646;8.906;2022-11-18T01:25:43;5.43;;;4.03;;
4597;SDS011;62772;48.646;8.906;2022-11-18T01:30:45;5.10;;;3.57;;
4597;SDS011;62772;48.646;8.906;2022-11-18T01:35:48;4.77;;;3.90;;
4597;SDS011;62772;48.646;8.906;2022-11-18T01:40:49;4.80;;;3.20;;
4597;SDS011;62772;48.646;8.906;2022-11-18T01:45:50;4.90;;;3.43;;
4597;SDS011;62772;48.646;8.906;2022-11-18T01:50:56;4.80;;;3.13;;
4597;SDS011;62772;48.646;8.906;2022-11-18T01:56:02;4.00;;;2.77;;
4597;SDS011;62772;48.646;8.906;2022-11-18T02:01:07;4.67;;;3.10;;
4597;SDS011;62772;48.646;8.906;2022-11-18T02:06:11;5.87;;;3.20;;
4597;SDS011;62772;48.646;8.906;2022-11-18T02:11:13;5.00;;;3.63;;
4597;SDS011;62772;48.646;8.906;2022-11-18T02:16:37;5.50;;;3.10;;
4597;SDS011;62772;48.646;8.906;2022-11-18T02:21:51;3.83;;;2.40;;
4597;SDS011;62772;48.646;8.906;2022-11-18T02:27:14;4.70;;;2.87;;
4597;SDS011;62772;48.646;8.906;2022-11-18T02:32:35;3.40;;;2.40;;
4597;SDS011;62772;48.646;8.906;2022-11-18T02:37:42;3.40;;;2.20;;
4597;SDS011;62772;48.646;8.906;2022-11-18T02:42:50;4.23;;;2.77;;
4597;SDS011;62772;48.646;8.906;2022-11-18T02:47:57;5.60;;;2.43;;
4597;SDS011;62772;48.646;8.906;2022-11-18T02:53:03;4.23;;;2.83;;
4597;SDS011;62772;48.646;8.906;2022-11-18T02:58:06;4.13;;;2.80;;
4597;SDS011;62772;48.646;8.906;2022-11-18T03:03:23;3.13;;;1.90;;
4597;SDS011;62772;48.646;8.906;2022-11-18T03:08:26;4.30;;;1.50;;
4597;SDS011;62772;48.646;8.906;2022-11-18T03:13:39;6.63;;;1.70;;
4597;SDS011;62772;48.646;8.906;2022-11-18T03:18:53;3.20;;;1.63;;
4597;SDS011;62772;48.646;8.906;2022-11-18T03:24:02;2.30;;;1.30;;
4597;SDS011;62772;48.646;8.906;2022-11-18T03:29:09;4.33;;;1.53;;
4597;SDS011;62772;48.646;8.906;2022-11-18T03:34:19;3.97;;;1.33;;
4597;SDS011;62772;48.646;8.906;2022-11-18T03:39:26;2.27;;;1.50;;
4597;SDS011;62772;48.646;8.906;2022-11-18T03:44:30;2.17;;;1.47;;
4597;SDS011;62772;48.646;8.906;2022-11-18T03:49:38;3.00;;;1.77;;
4597;SDS011;62772;48.646;8.906;2022-11-18T03:54:42;2.93;;;1.80;;
4597;SDS011;62772;48.646;8.906;2022-11-18T03:59:47;4.40;;;2.43;;
4597;SDS011;62772;48.646;8.906;2022-11-18T04:04:54;3.03;;;2.17;;
4597;SDS011;62772;48.646;8.906;2022-11-18T04:09:58;4.00;;;2.60;;
4597;SDS011;62772;48.646;8.906;2022-11-18T04:15:03;6.37;;;3.83;;
4597;SDS011;62772;48.646;8.906;2022-11-18T04:20:08;4.20;;;3.00;;
4597;SDS011;62772;48.646;8.906;2022-11-18T04:25:16;2.70;;;1.67;;
4597;SDS011;62772;48.646;8.906;2022-11-18T04:30:16;3.60;;;2.10;;
4597;SDS011;62772;48.646;8.906;2022-11-18T04:35:21;3.20;;;2.13;;
4597;SDS011;62772;48.646;8.906;2022-11-18T04:40:22;3.40;;;1.70;;
4597;SDS011;62772;48.646;8.906;2022-11-18T04:45:22;2.27;;;1.50;;
4597;SDS011;62772;48.646;8.906;2022-11-18T04:50:26;17.43;;;2.80;;
4597;SDS011;62772;48.646;8.906;2022-11-18T04:55:26;2.70;;;2.00;;
4597;SDS011;62772;48.646;8.906;2022-11-18T05:00:27;1.80;;;1.20;;
4597;SDS011;62772;48.646;8.906;2022-11-18T05:05:31;2.00;;;1.20;;
4597;SDS011;62772;48.646;8.906;2022-11-18T05:10:33;2.57;;;1.40;;
4597;SDS011;62772;48.646;8.906;2022-11-18T05:15:34;1.93;;;1.30;;
4597;SDS011;62772;48.646;8.906;2022-11-18T05:20:38;2.10;;;1.30;;
4597;SDS011;62772;48.646;8.906;2022-11-18T05:25:39;2.80;;;1.40;;
4597;SDS011;62772;48.646;8.906;2022-11-18T05:30:40;2.67;;;1.70;;
4597;SDS011;62772;48.646;8.906;2022-11-18T05:35:43;2.47;;;1.60;;
4597;SDS011;62772;48.646;8.906;2022-11-18T05:40:44;2.37;;;1.43;;
4597;SDS011;62772;48.646;8.906;2022-11-18T05:45:48;2.07;;;1.43;;
4597;SDS011;62772;48.646;8.906;2022-11-18T05:50:53;2.97;;;1.80;;
4597;SDS011;62772;48.646;8.906;2022-11-18T05:55:56;2.00;;;1.40;;
4597;SDS011;62772;48.646;8.906;2022-11-18T06:01:03;2.07;;;1.30;;
4597;SDS011;62772;48.646;8.906;2022-11-18T06:06:09;2.13;;;1.50;;
4597;SDS011;62772;48.646;8.906;2022-11-18T06:11:12;2.03;;;1.50;;
4597;SDS011;62772;48.646;8.906;2022-11-18T06:16:16;2.60;;;1.80;;
4597;SDS011;62772;48.646;8.906;2022-11-18T06:21:23;5.77;;;2.00;;
4597;SDS011;62772;48.646;8.906;2022-11-18T06:26:23;2.90;;;1.80;;
4597;SDS011;62772;48.646;8.906;2022-11-18T06:31:24;2.30;;;1.60;;
4597;SDS011;62772;48.646;8.906;2022-11-18T06:36:27;4.03;;;1.90;;
4597;SDS011;62772;48.646;8.906;2022-11-18T06:41:28;2.30;;;1.60;;
4597;SDS011;62772;48.646;8.906;2022-11-18T06:46:29;5.60;;;1.70;;
4597;SDS011;62772;48.646;8.906;2022-11-18T06:51:51;2.43;;;1.60;;
4597;SDS011;62772;48.646;8.906;2022-11-18T06:56:52;2.40;;;1.60;;
4597;SDS011;62772;48.646;8.906;2022-11-18T07:01:53;3.17;;;2.00;;
4597;SDS011;62772;48.646;8.906;2022-11-18T07:06:57;3.37;;;1.87;;
4597;SDS011;62772;48.646;8.906;2022-11-18T07:12:00;2.63;;;1.83;;
4597;SDS011;62772;48.646;8.906;2022-11-18T07:17:01;2.40;;;1.50;;
4597;SDS011;62772;48.646;8.906;2022-11-18T07:22:05;3.10;;;1.80;;
4597;SDS011;62772;48.646;8.906;2022-11-18T07:27:07;6.37;;;2.80;;
4597;SDS011;62772;48.646;8.906;2022-11-18T07:32:08;5.30;;;2.90;;
4597;SDS011;62772;48.646;8.906;2022-11-18T07:37:11;5.60;;;3.13;;
4597;SDS011;62772;48.646;8.906;2022-11-18T07:42:12;4.33;;;2.77;;
4597;SDS011;62772;48.646;8.906;2022-11-18T07:47:13;4.93;;;3.10;;
4597;SDS011;62772;48.646;8.906;2022-11-18T07:52:16;2.60;;;1.97;;
4597;SDS011;62772;48.646;8.906;2022-11-18T07:57:17;2.97;;;2.10;;
4597;SDS011;62772;48.646;8.906;2022-11-18T08:02:17;6.73;;;3.10;;
4597;SDS011;62772;48.646;8.906;2022-11-18T08:07:21;7.80;;;3.87;;
4597;SDS011;62772;48.646;8.906;2022-11-18T08:12:21;5.27;;;2.50;;
4597;SDS011;62772;48.646;8.906;2022-11-18T08:17:22;4.90;;;2.80;;
4597;SDS011;62772;48.646;8.906;2022-11-18T08:22:26;3.30;;;2.20;;
4597;SDS011;62772;48.646;8.906;2022-11-18T08:27:26;6.80;;;2.20;;
4597;SDS011;62772;48.646;8.906;2022-11-18T08:32:27;4.17;;;2.10;;
4597;SDS011;62772;48.646;8.906;2022-11-18T08:37:30;4.37;;;2.70;;
4597;SDS011;62772;48.646;8.906;2022-11-18T08:42:32;17.73;;;9.30;;
4597;SDS011;62772;48.646;8.906;2022-11-18T08:47:33;6.60;;;4.40;;
4597;SDS011;62772;48.646;8.906;2022-11-18T08:52:37;11.87;;;5.60;;
4597;SDS011;62772;48.646;8.906;2022-11-18T08:57:38;9.77;;;5.67;;
4597;SDS011;62772;48.646;8.906;2022-11-18T09:02:39;13.73;;;8.13;;
4597;SDS011;62772;48.646;8.906;2022-11-18T09:07:43;7.47;;;3.97;;
4597;SDS011;62772;48.646;8.906;2022-11-18T09:12:43;4.67;;;2.77;;
4597;SDS011;62772;48.646;8.906;2022-11-18T09:17:44;5.80;;;3.70;;
4597;SDS011;62772;48.646;8.906;2022-11-18T09:22:48;22.27;;;10.87;;
4597;SDS011;62772;48.646;8.906;2022-11-18T09:27:48;10.17;;;6.63;;
4597;SDS011;62772;48.646;8.906;2022-11-18T09:32:51;8.87;;;5.10;;
4597;SDS011;62772;48.646;8.906;2022-11-18T09:37:55;6.13;;;4.43;;
4597;SDS011;62772;48.646;8.906;2022-11-18T09:42:56;7.83;;;4.40;;
4597;SDS011;62772;48.646;8.906;2022-11-18T09:48:11;4.43;;;3.10;;
4597;SDS011;62772;48.646;8.906;2022-11-18T09:53:20;5.27;;;3.07;;
4597;SDS011;62772;48.646;8.906;2022-11-18T09:58:24;5.90;;;3.60;;
4597;SDS011;62772;48.646;8.906;2022-11-18T10:03:32;5.67;;;3.20;;
4597;SDS011;62772;48.646;8.906;2022-11-18T10:08:39;4.73;;;2.57;;
4597;SDS011;62772;48.646;8.906;2022-11-18T10:13:53;12.67;;;6.03;;
4597;SDS011;62772;48.646;8.906;2022-11-18T10:19:00;3.10;;;1.87;;
4597;SDS011;62772;48.646;8.906;2022-11-18T10:24:14;4.03;;;2.60;;
4597;SDS011;62772;48.646;8.906;2022-11-18T10:29:17;2.93;;;1.90;;
4597;SDS011;62772;48.646;8.906;2022-11-18T10:34:18;3.23;;;2.10;;
4597;SDS011;62772;48.646;8.906;2022-11-18T10:39:22;2.60;;;1.80;;
4597;SDS011;62772;48.646;8.906;2022-11-18T10:44:27;2.77;;;1.67;;
4597;SDS011;62772;48.646;8.906;2022-11-18T10:49:36;3.80;;;1.63;;
4597;SDS011;62772;48.646;8.906;2022-11-18T10:54:41;4.00;;;2.10;;
4597;SDS011;62772;48.646;8.906;2022-11-18T10:59:45;3.30;;;1.87;;
4597;SDS011;62772;48.646;8.906;2022-11-18T11:04:47;2.53;;;1.53;;
4597;SDS011;62772;48.646;8.906;2022-11-18T11:10:12;4.63;;;2.30;;
4597;SDS011;62772;48.646;8.906;2022-11-18T11:15:21;3.73;;;2.10;;
4597;SDS011;62772;48.646;8.906;2022-11-18T11:20:26;4.50;;;2.17;;
4597;SDS011;62772;48.646;8.906;2022-11-18T11:25:31;3.03;;;1.70;;
4597;SDS011;62772;48.646;8.906;2022-11-18T11:30:38;2.37;;;1.40;;
4597;SDS011;62772;48.646;8.906;2022-11-18T11:35:48;2.63;;;1.73;;
4597;SDS011;62772;48.646;8.906;2022-11-18T11:41:01;4.10;;;1.73;;
4597;SDS011;62772;48.646;8.906;2022-11-18T11:46:15;3.00;;;1.67;;
4597;SDS011;62772;48.646;8.906;2022-11-18T11:51:25;2.90;;;1.63;;
4597;SDS011;62772;48.646;8.906;2022-11-18T11:56:34;4.30;;;1.80;;
4597;SDS011;62772;48.646;8.906;2022-11-18T12:01:42;3.73;;;1.90;;
4597;SDS011;62772;48.646;8.906;2022-11-18T12:06:54;2.43;;;1.50;;
4597;SDS011;62772;48.646;8.906;2022-11-18T12:12:00;5.17;;;1.80;;
4597;SDS011;62772;48.646;8.906;2022-11-18T12:17:29;3.90;;;2.17;;
4597;SDS011;62772;48.646;8.906;2022-11-18T12:28:10;5.20;;;2.57;;
4597;SDS011;62772;48.646;8.906;2022-11-18T12:33:23;2.53;;;1.60;;
4597;SDS011;62772;48.646;8.906;2022-11-18T12:38:27;3.17;;;1.63;;
4597;SDS011;62772;48.646;8.906;2022-11-18T12:54:36;3.20;;;1.63;;
4597;SDS011;62772;48.646;8.906;2022-11-18T12:59:43;3.20;;;1.80;;
4597;SDS011;62772;48.646;8.906;2022-11-18T13:04:43;3.00;;;1.80;;
4597;SDS011;62772;48.646;8.906;2022-11-18T13:09:47;4.07;;;2.03;;
4597;SDS011;62772;48.646;8.906;2022-11-18T13:14:47;3.50;;;1.80;;
4597;SDS011;62772;48.646;8.906;2022-11-18T13:20:18;3.90;;;2.00;;
4597;SDS011;62772;48.646;8.906;2022-11-18T13:25:26;3.30;;;2.00;;
4597;SDS011;62772;48.646;8.906;2022-11-18T13:30:27;4.40;;;2.20;;
4597;SDS011;62772;48.646;8.906;2022-11-18T13:35:29;3.57;;;1.90;;
4597;SDS011;62772;48.646;8.906;2022-11-18T13:40:37;4.57;;;1.90;;
4597;SDS011;62772;48.646;8.906;2022-11-18T13:46:03;3.30;;;1.83;;
4597;SDS011;62772;48.646;8.906;2022-11-18T13:51:06;3.30;;;1.80;;
4597;SDS011;62772;48.646;8.906;2022-11-18T13:56:14;2.77;;;1.87;;
4597;SDS011;62772;48.646;8.906;2022-11-18T14:01:19;6.93;;;3.03;;
4597;SDS011;62772;48.646;8.906;2022-11-18T14:06:23;5.00;;;2.30;;
4597;SDS011;62772;48.646;8.906;2022-11-18T14:11:36;4.80;;;2.97;;
4597;SDS011;62772;48.646;8.906;2022-11-18T14:16:39;7.73;;;2.73;;
4597;SDS011;62772;48.646;8.906;2022-11-18T14:21:41;7.20;;;2.57;;
4597;SDS011;62772;48.646;8.906;2022-11-18T14:26:45;7.47;;;2.53;;
4597;SDS011;62772;48.646;8.906;2022-11-18T14:32:00;6.00;;;2.33;;
4597;SDS011;62772;48.646;8.906;2022-11-18T14:37:05;2.60;;;1.80;;
4597;SDS011;62772;48.646;8.906;2022-11-18T14:42:13;3.30;;;2.07;;
4597;SDS011;62772;48.646;8.906;2022-11-18T14:47:14;6.37;;;2.87;;
4597;SDS011;62772;48.646;8.906;2022-11-18T14:52:22;5.13;;;2.50;;
4597;SDS011;62772;48.646;8.906;2022-11-18T14:57:25;6.57;;;2.77;;
4597;SDS011;62772;48.646;8.906;2022-11-18T15:02:26;4.90;;;2.70;;
4597;SDS011;62772;48.646;8.906;2022-11-18T15:07:27;4.27;;;2.73;;
4597;SDS011;62772;48.646;8.906;2022-11-18T15:12:30;5.90;;;3.80;;
4597;SDS011;62772;48.646;8.906;2022-11-18T15:17:31;5.20;;;3.40;;
4597;SDS011;62772;48.646;8.906;2022-11-18T15:22:32;9.60;;;3.70;;
4597;SDS011;62772;48.646;8.906;2022-11-18T15:27:36;6.90;;;3.63;;
4597;SDS011;62772;48.646;8.906;2022-11-18T15:32:37;5.93;;;3.30;;
4597;SDS011;62772;48.646;8.906;2022-11-18T15:37:37;4.90;;;3.10;;
4597;SDS011;62772;48.646;8.906;2022-11-18T15:42:41;6.60;;;3.80;;
4597;SDS011;62772;48.646;8.906;2022-11-18T15:47:42;8.00;;;4.00;;
4597;SDS011;62772;48.646;8.906;2022-11-18T15:52:43;13.17;;;6.27;;
4597;SDS011;62772;48.646;8.906;2022-11-18T15:57:46;11.63;;;5.20;;
4597;SDS011;62772;48.646;8.906;2022-11-18T16:02:46;17.83;;;9.63;;
4597;SDS011;62772;48.646;8.906;2022-11-18T16:07:47;24.73;;;12.33;;
4597;SDS011;62772;48.646;8.906;2022-11-18T16:12:51;43.20;;;20.67;;
4597;SDS011;62772;48.646;8.906;2022-11-18T16:17:52;32.67;;;18.00;;
4597;SDS011;62772;48.646;8.906;2022-11-18T16:22:53;17.10;;;8.63;;
4597;SDS011;62772;48.646;8.906;2022-11-18T16:27:57;9.77;;;5.80;;
4597;SDS011;62772;48.646;8.906;2022-11-18T16:32:58;9.70;;;5.80;;
4597;SDS011;62772;48.646;8.906;2022-11-18T16:37:59;10.53;;;5.50;;
4597;SDS011;62772;48.646;8.906;2022-11-18T16:43:03;10.87;;;7.20;;
4597;SDS011;62772;48.646;8.906;2022-11-18T16:48:03;14.27;;;6.27;;
4597;SDS011;62772;48.646;8.906;2022-11-18T16:53:04;11.60;;;6.53;;
4597;SDS011;62772;48.646;8.906;2022-11-18T16:58:08;12.73;;;7.70;;
4597;SDS011;62772;48.646;8.906;2022-11-18T17:03:11;11.80;;;6.93;;
4597;SDS011;62772;48.646;8.906;2022-11-18T17:08:11;12.07;;;8.13;;
4597;SDS011;62772;48.646;8.906;2022-11-18T17:13:15;12.67;;;7.53;;
4597;SDS011;62772;48.646;8.906;2022-11-18T17:18:16;13.83;;;7.17;;
4597;SDS011;62772;48.646;8.906;2022-11-18T17:23:16;10.60;;;6.50;;
4597;SDS011;62772;48.646;8.906;2022-11-18T17:28:20;16.50;;;7.87;;
4597;SDS011;62772;48.646;8.906;2022-11-18T17:33:21;13.13;;;8.20;;
4597;SDS011;62772;48.646;8.906;2022-11-18T17:38:22;17.20;;;9.07;;
4597;SDS011;62772;48.646;8.906;2022-11-18T17:43:26;20.30;;;9.97;;
4597;SDS011;62772;48.646;8.906;2022-11-18T17:48:29;18.00;;;9.70;;
4597;SDS011;62772;48.646;8.906;2022-11-18T17:53:31;19.40;;;10.60;;
4597;SDS011;62772;48.646;8.906;2022-11-18T17:58:34;14.80;;;9.20;;
4597;SDS011;62772;48.646;8.906;2022-11-18T18:03:35;11.43;;;7.60;;
4597;SDS011;62772;48.646;8.906;2022-11-18T18:08:36;15.67;;;8.97;;
4597;SDS011;62772;48.646;8.906;2022-11-18T18:13:40;16.10;;;8.20;;
4597;SDS011;62772;48.646;8.906;2022-11-18T18:19:00;15.20;;;8.93;;
4597;SDS011;62772;48.646;8.906;2022-11-18T18:24:04;15.40;;;8.50;;
4597;SDS011;62772;48.646;8.906;2022-11-18T18:29:08;14.70;;;7.43;;
4597;SDS011;62772;48.646;8.906;2022-11-18T18:34:10;21.90;;;10.00;;
4597;SDS011;62772;48.646;8.906;2022-11-18T18:39:11;16.63;;;7.90;;
4597;SDS011;62772;48.646;8.906;2022-11-18T18:44:14;16.60;;;9.47;;
4597;SDS011;62772;48.646;8.906;2022-11-18T18:49:15;19.27;;;10.80;;
4597;SDS011;62772;48.646;8.906;2022-11-18T18:54:19;13.87;;;7.87;;
4597;SDS011;62772;48.646;8.906;2022-11-18T18:59:23;13.70;;;6.80;;
4597;SDS011;62772;48.646;8.906;2022-11-18T19:04:24;11.33;;;6.70;;
4597;SDS011;62772;48.646;8.906;2022-11-18T19:09:25;12.27;;;7.10;;
4597;SDS011;62772;48.646;8.906;2022-11-18T19:14:28;21.67;;;10.63;;
4597;SDS011;62772;48.646;8.906;2022-11-18T19:19:29;38.43;;;16.93;;
4597;SDS011;62772;48.646;8.906;2022-11-18T19:24:48;32.33;;;16.53;;
4597;SDS011;62772;48.646;8.906;2022-11-18T19:29:52;10.90;;;5.70;;
4597;SDS011;62772;48.646;8.906;2022-11-18T19:34:53;9.67;;;5.27;;
4597;SDS011;62772;48.646;8.906;2022-11-18T19:39:53;8.70;;;5.50;;
4597;SDS011;62772;48.646;8.906;2022-11-18T19:44:57;10.80;;;7.30;;
4597;SDS011;62772;48.646;8.906;2022-11-18T19:49:58;16.57;;;7.50;;
4597;SDS011;62772;48.646;8.906;2022-11-18T19:54:59;17.63;;;9.17;;
4597;SDS011;62772;48.646;8.906;2022-11-18T20:00:03;22.73;;;10.47;;
4597;SDS011;62772;48.646;8.906;2022-11-18T20:05:09;16.40;;;9.23;;
4597;SDS011;62772;48.646;8.906;2022-11-18T20:10:29;13.97;;;8.57;;
4597;SDS011;62772;48.646;8.906;2022-11-18T20:15:32;13.33;;;8.10;;
4597;SDS011;62772;48.646;8.906;2022-11-18T20:20:33;18.20;;;10.20;;
4597;SDS011;62772;48.646;8.906;2022-11-18T20:25:34;10.33;;;6.50;;
4597;SDS011;62772;48.646;8.906;2022-11-18T20:30:37;12.83;;;7.13;;
4597;SDS011;62772;48.646;8.906;2022-11-18T20:35:38;13.80;;;7.60;;
4597;SDS011;62772;48.646;8.906;2022-11-18T20:40:39;14.87;;;7.97;;
4597;SDS011;62772;48.646;8.906;2022-11-18T20:45:42;18.20;;;8.17;;
4597;SDS011;62772;48.646;8.906;2022-11-18T20:50:52;17.57;;;7.53;;
4597;SDS011;62772;48.646;8.906;2022-11-18T20:55:53;21.43;;;9.27;;
4597;SDS011;62772;48.646;8.906;2022-11-18T21:00:56;17.37;;;9.73;;
4597;SDS011;62772;48.646;8.906;2022-11-18T21:05:57;17.70;;;10.30;;
4597;SDS011;62772;48.646;8.906;2022-11-18T21:11:05;13.87;;;8.70;;
4597;SDS011;62772;48.646;8.906;2022-11-18T21:16:10;17.40;;;9.33;;
4597;SDS011;62772;48.646;8.906;2022-11-18T21:21:10;12.53;;;8.00;;
4597;SDS011;62772;48.646;8.906;2022-11-18T21:26:31;14.00;;;7.70;;
4597;SDS011;62772;48.646;8.906;2022-11-18T21:31:36;13.13;;;7.67;;
4597;SDS011;62772;48.646;8.906;2022-11-18T21:36:37;14.97;;;7.60;;
4597;SDS011;62772;48.646;8.906;2022-11-18T21:41:41;16.17;;;8.07;;
4597;SDS011;62772;48.646;8.906;2022-11-18T21:46:45;12.20;;;7.70;;
4597;SDS011;62772;48.646;8.906;2022-11-18T21:51:46;10.80;;;6.40;;
4597;SDS011;62772;48.646;8.906;2022-11-18T21:56:46;14.53;;;7.70;;
4597;SDS011;62772;48.646;8.906;2022-11-18T22:01:50;19.73;;;9.30;;
4597;SDS011;62772;48.646;8.906;2022-11-18T22:06:50;13.47;;;8.00;;
4597;SDS011;62772;48.646;8.906;2022-11-18T22:11:51;14.27;;;8.07;;
4597;SDS011;62772;48.646;8.906;2022-11-18T22:16:55;12.30;;;7.10;;
4597;SDS011;62772;48.646;8.906;2022-11-18T22:21:55;11.10;;;6.57;;
4597;SDS011;62772;48.646;8.906;2022-11-18T22:26:56;12.43;;;8.13;;
4597;SDS011;62772;48.646;8.906;2022-11-18T22:32:00;15.07;;;8.63;;
4597;SDS011;62772;48.646;8.906;2022-11-18T22:37:03;13.80;;;8.07;;
4597;SDS011;62772;48.646;8.906;2022-11-18T22:42:04;18.20;;;10.93;;
4597;SDS011;62772;48.646;8.906;2022-11-18T22:47:26;14.13;;;7.00;;
4597;SDS011;62772;48.646;8.906;2022-11-18T22:52:27;10.43;;;6.20;;
4597;SDS011;62772;48.646;8.906;2022-11-18T22:57:31;12.07;;;6.60;;
4597;SDS011;62772;48.646;8.906;2022-11-18T23:02:35;13.23;;;6.40;;
4597;SDS011;62772;48.646;8.906;2022-11-18T23:07:35;9.17;;;5.23;;
4597;SDS011;62772;48.646;8.906;2022-11-18T23:12:36;10.63;;;5.70;;
4597;SDS011;62772;48.646;8.906;2022-11-18T23:17:58;7.70;;;4.70;;
4597;SDS011;62772;48.646;8.906;2022-11-18T23:22:59;6.80;;;4.20;;
4597;SDS011;62772;48.646;8.906;2022-11-18T23:28:00;8.40;;;4.30;;
4597;SDS011;62772;48.646;8.906;2022-11-18T23:33:03;5.30;;;3.50;;
4597;SDS011;62772;48.646;8.906;2022-11-18T23:38:04;7.53;;;3.73;;
4597;SDS011;62772;48.646;8.906;2022-11-18T23:43:05;6.70;;;3.33;;
4597;SDS011;62772;48.646;8.906;2022-11-18T23:48:08;5.90;;;3.63;;
4597;SDS011;62772;48.646;8.906;2022-11-18T23:53:09;11.33;;;4.43;;
4597;SDS011;62772;48.646;8.906;2022-11-18T23:58:10;5.07;;;3.63;;
